sensor_id;sensor_type;location;lat;lon;timestamp;P1;durP1;ratioP1;P2;durP2;ratioP2
3698;SDS011;1865;50.918;7.092;2023-03-01T00:01:52;11.67;;;6.33;;
3698;SDS011;1865;50.918;7.092;2023-03-01T00:04:17;18.57;;;9.10;;
3698;SDS011;1865;50.918;7.092;2023-03-01T00:06:43;14.20;;;6.87;;
3698;SDS011;1865;50.918;7.092;2023-03-01T00:09:11;15.20;;;6.43;;
3698;SDS011;1865;50.918;7.092;2023-03-01T00:11:38;13.47;;;6.33;;
3698;SDS011;1865;50.918;7.092;2023-03-01T00:14:04;13.30;;;5.80;;
3698;SDS011;1865;50.918;7.092;2023-03-01T00:16:34;10.90;;;4.87;;
3698;SDS011;1865;50.918;7.092;2023-03-01T00:19:06;11.87;;;5.40;;
3698;SDS011;1865;50.918;7.092;2023-03-01T00:21:34;12.40;;;5.00;;
3698;SDS011;1865;50.918;7.092;2023-03-01T00:24:00;13.87;;;4.90;;
3698;SDS011;1865;50.918;7.092;2023-03-01T00:26:26;9.73;;;4.67;;
3698;SDS011;1865;50.918;7.092;2023-03-01T00:28:53;9.90;;;4.50;;
3698;SDS011;1865;50.918;7.092;2023-03-01T00:31:21;10.10;;;5.13;;
3698;SDS011;1865;50.918;7.092;2023-03-01T00:33:57;11.60;;;4.70;;
3698;SDS011;1865;50.918;7.092;2023-03-01T00:36:26;9.60;;;4.97;;
3698;SDS011;1865;50.918;7.092;2023-03-01T00:38:54;9.83;;;4.90;;
3698;SDS011;1865;50.918;7.092;2023-03-01T00:41:20;10.07;;;4.90;;
3698;SDS011;1865;50.918;7.092;2023-03-01T00:43:47;10.80;;;5.23;;
3698;SDS011;1865;50.918;7.092;2023-03-01T00:46:18;11.70;;;5.20;;
3698;SDS011;1865;50.918;7.092;2023-03-01T00:48:45;15.23;;;5.10;;
3698;SDS011;1865;50.918;7.092;2023-03-01T00:51:12;12.30;;;4.90;;
3698;SDS011;1865;50.918;7.092;2023-03-01T00:53:39;13.30;;;4.90;;
3698;SDS011;1865;50.918;7.092;2023-03-01T00:56:05;11.60;;;4.83;;
3698;SDS011;1865;50.918;7.092;2023-03-01T00:58:32;10.73;;;4.97;;
3698;SDS011;1865;50.918;7.092;2023-03-01T01:00:58;12.00;;;4.70;;
3698;SDS011;1865;50.918;7.092;2023-03-01T01:03:24;13.83;;;4.83;;
3698;SDS011;1865;50.918;7.092;2023-03-01T01:05:50;13.30;;;5.50;;
3698;SDS011;1865;50.918;7.092;2023-03-01T01:08:16;10.43;;;5.33;;
3698;SDS011;1865;50.918;7.092;2023-03-01T01:10:43;11.67;;;5.17;;
3698;SDS011;1865;50.918;7.092;2023-03-01T01:13:09;8.60;;;4.30;;
3698;SDS011;1865;50.918;7.092;2023-03-01T01:15:35;18.10;;;6.23;;
3698;SDS011;1865;50.918;7.092;2023-03-01T01:18:01;10.73;;;5.27;;
3698;SDS011;1865;50.918;7.092;2023-03-01T01:20:27;9.53;;;4.67;;
3698;SDS011;1865;50.918;7.092;2023-03-01T01:22:52;11.97;;;5.10;;
3698;SDS011;1865;50.918;7.092;2023-03-01T01:25:18;11.60;;;4.50;;
3698;SDS011;1865;50.918;7.092;2023-03-01T01:27:44;12.93;;;5.20;;
3698;SDS011;1865;50.918;7.092;2023-03-01T01:30:10;13.37;;;4.33;;
3698;SDS011;1865;50.918;7.092;2023-03-01T01:32:36;11.20;;;4.73;;
3698;SDS011;1865;50.918;7.092;2023-03-01T01:35:02;10.37;;;5.13;;
3698;SDS011;1865;50.918;7.092;2023-03-01T01:37:27;11.80;;;4.80;;
3698;SDS011;1865;50.918;7.092;2023-03-01T01:39:56;9.90;;;5.30;;
3698;SDS011;1865;50.918;7.092;2023-03-01T01:42:24;12.30;;;4.87;;
3698;SDS011;1865;50.918;7.092;2023-03-01T01:45:15;11.53;;;5.23;;
3698;SDS011;1865;50.918;7.092;2023-03-01T01:47:58;11.83;;;5.17;;
3698;SDS011;1865;50.918;7.092;2023-03-01T01:50:28;11.17;;;5.17;;
3698;SDS011;1865;50.918;7.092;2023-03-01T01:53:02;12.87;;;5.27;;
3698;SDS011;1865;50.918;7.092;2023-03-01T01:55:30;11.63;;;4.70;;
3698;SDS011;1865;50.918;7.092;2023-03-01T01:57:57;11.53;;;5.30;;
3698;SDS011;1865;50.918;7.092;2023-03-01T02:00:27;12.83;;;6.13;;
3698;SDS011;1865;50.918;7.092;2023-03-01T02:02:58;13.97;;;5.83;;
3698;SDS011;1865;50.918;7.092;2023-03-01T02:08:29;9.80;;;4.67;;
3698;SDS011;1865;50.918;7.092;2023-03-01T02:10:58;13.20;;;4.67;;
3698;SDS011;1865;50.918;7.092;2023-03-01T02:13:25;11.47;;;4.90;;
3698;SDS011;1865;50.918;7.092;2023-03-01T02:15:51;9.97;;;4.30;;
3698;SDS011;1865;50.918;7.092;2023-03-01T02:18:17;10.87;;;4.43;;
3698;SDS011;1865;50.918;7.092;2023-03-01T02:23:42;10.57;;;4.60;;
3698;SDS011;1865;50.918;7.092;2023-03-01T02:28:42;9.73;;;5.13;;
3698;SDS011;1865;50.918;7.092;2023-03-01T02:31:10;11.60;;;5.60;;
3698;SDS011;1865;50.918;7.092;2023-03-01T02:33:57;12.13;;;5.00;;
3698;SDS011;1865;50.918;7.092;2023-03-01T02:36:24;10.90;;;5.10;;
3698;SDS011;1865;50.918;7.092;2023-03-01T02:38:59;16.53;;;4.80;;
3698;SDS011;1865;50.918;7.092;2023-03-01T02:41:27;11.57;;;5.43;;
3698;SDS011;1865;50.918;7.092;2023-03-01T02:43:56;12.53;;;5.53;;
3698;SDS011;1865;50.918;7.092;2023-03-01T02:46:23;10.10;;;5.20;;
3698;SDS011;1865;50.918;7.092;2023-03-01T02:48:57;15.10;;;5.80;;
3698;SDS011;1865;50.918;7.092;2023-03-01T02:56:44;10.37;;;4.97;;
3698;SDS011;1865;50.918;7.092;2023-03-01T02:59:14;10.67;;;4.90;;
3698;SDS011;1865;50.918;7.092;2023-03-01T03:01:42;11.80;;;4.83;;
3698;SDS011;1865;50.918;7.092;2023-03-01T03:04:09;10.80;;;5.63;;
3698;SDS011;1865;50.918;7.092;2023-03-01T03:06:41;16.80;;;5.60;;
3698;SDS011;1865;50.918;7.092;2023-03-01T03:09:09;10.30;;;4.80;;
3698;SDS011;1865;50.918;7.092;2023-03-01T03:11:34;9.60;;;4.70;;
3698;SDS011;1865;50.918;7.092;2023-03-01T03:14:01;12.40;;;5.70;;
3698;SDS011;1865;50.918;7.092;2023-03-01T03:16:27;9.40;;;4.27;;
3698;SDS011;1865;50.918;7.092;2023-03-01T03:18:54;9.27;;;4.50;;
3698;SDS011;1865;50.918;7.092;2023-03-01T03:21:20;9.50;;;4.67;;
3698;SDS011;1865;50.918;7.092;2023-03-01T03:23:45;14.80;;;5.13;;
3698;SDS011;1865;50.918;7.092;2023-03-01T03:26:11;8.97;;;4.20;;
3698;SDS011;1865;50.918;7.092;2023-03-01T03:28:38;11.00;;;5.20;;
3698;SDS011;1865;50.918;7.092;2023-03-01T03:31:05;12.20;;;5.27;;
3698;SDS011;1865;50.918;7.092;2023-03-01T03:33:32;12.90;;;5.47;;
3698;SDS011;1865;50.918;7.092;2023-03-01T03:35:58;9.40;;;4.60;;
3698;SDS011;1865;50.918;7.092;2023-03-01T03:38:23;11.30;;;4.43;;
3698;SDS011;1865;50.918;7.092;2023-03-01T03:40:50;12.10;;;5.40;;
3698;SDS011;1865;50.918;7.092;2023-03-01T03:43:26;10.20;;;4.37;;
3698;SDS011;1865;50.918;7.092;2023-03-01T03:45:51;9.17;;;4.40;;
3698;SDS011;1865;50.918;7.092;2023-03-01T03:48:17;11.47;;;4.67;;
3698;SDS011;1865;50.918;7.092;2023-03-01T03:50:47;11.50;;;5.20;;
3698;SDS011;1865;50.918;7.092;2023-03-01T03:53:20;14.70;;;5.50;;
3698;SDS011;1865;50.918;7.092;2023-03-01T03:55:47;8.40;;;4.33;;
3698;SDS011;1865;50.918;7.092;2023-03-01T03:58:14;11.70;;;5.00;;
3698;SDS011;1865;50.918;7.092;2023-03-01T04:00:41;11.60;;;4.73;;
3698;SDS011;1865;50.918;7.092;2023-03-01T04:03:09;9.23;;;4.20;;
3698;SDS011;1865;50.918;7.092;2023-03-01T04:05:36;11.20;;;4.77;;
3698;SDS011;1865;50.918;7.092;2023-03-01T04:08:03;11.27;;;4.93;;
3698;SDS011;1865;50.918;7.092;2023-03-01T04:10:38;9.93;;;5.13;;
3698;SDS011;1865;50.918;7.092;2023-03-01T04:13:10;11.33;;;5.13;;
3698;SDS011;1865;50.918;7.092;2023-03-01T04:15:37;9.10;;;4.80;;
3698;SDS011;1865;50.918;7.092;2023-03-01T04:18:02;9.20;;;4.50;;
3698;SDS011;1865;50.918;7.092;2023-03-01T04:20:31;8.97;;;4.53;;
3698;SDS011;1865;50.918;7.092;2023-03-01T04:23:01;11.90;;;4.50;;
3698;SDS011;1865;50.918;7.092;2023-03-01T04:25:52;9.03;;;4.37;;
3698;SDS011;1865;50.918;7.092;2023-03-01T04:28:23;10.27;;;4.87;;
3698;SDS011;1865;50.918;7.092;2023-03-01T04:30:50;13.50;;;5.20;;
3698;SDS011;1865;50.918;7.092;2023-03-01T04:33:17;8.43;;;4.50;;
3698;SDS011;1865;50.918;7.092;2023-03-01T04:35:42;14.80;;;6.00;;
3698;SDS011;1865;50.918;7.092;2023-03-01T04:38:08;11.67;;;5.23;;
3698;SDS011;1865;50.918;7.092;2023-03-01T04:40:34;10.67;;;6.23;;
3698;SDS011;1865;50.918;7.092;2023-03-01T04:43:00;11.33;;;5.40;;
3698;SDS011;1865;50.918;7.092;2023-03-01T04:45:27;14.13;;;5.30;;
3698;SDS011;1865;50.918;7.092;2023-03-01T04:47:52;13.60;;;5.10;;
3698;SDS011;1865;50.918;7.092;2023-03-01T04:50:18;9.30;;;4.80;;
3698;SDS011;1865;50.918;7.092;2023-03-01T04:52:48;10.70;;;5.60;;
3698;SDS011;1865;50.918;7.092;2023-03-01T04:55:14;11.47;;;5.07;;
3698;SDS011;1865;50.918;7.092;2023-03-01T04:57:40;17.73;;;5.87;;
3698;SDS011;1865;50.918;7.092;2023-03-01T05:00:07;12.13;;;5.90;;
3698;SDS011;1865;50.918;7.092;2023-03-01T05:02:54;10.30;;;4.87;;
3698;SDS011;1865;50.918;7.092;2023-03-01T05:05:29;13.20;;;5.80;;
3698;SDS011;1865;50.918;7.092;2023-03-01T05:07:57;10.40;;;5.00;;
3698;SDS011;1865;50.918;7.092;2023-03-01T05:10:25;12.37;;;5.50;;
3698;SDS011;1865;50.918;7.092;2023-03-01T05:12:51;12.63;;;5.67;;
3698;SDS011;1865;50.918;7.092;2023-03-01T05:15:18;12.67;;;5.70;;
3698;SDS011;1865;50.918;7.092;2023-03-01T05:17:43;11.50;;;4.83;;
3698;SDS011;1865;50.918;7.092;2023-03-01T05:20:10;11.17;;;5.30;;
3698;SDS011;1865;50.918;7.092;2023-03-01T05:22:36;12.47;;;5.70;;
3698;SDS011;1865;50.918;7.092;2023-03-01T05:25:02;11.63;;;5.20;;
3698;SDS011;1865;50.918;7.092;2023-03-01T05:27:28;12.07;;;5.47;;
3698;SDS011;1865;50.918;7.092;2023-03-01T05:29:54;15.07;;;5.50;;
3698;SDS011;1865;50.918;7.092;2023-03-01T05:32:20;14.07;;;6.50;;
3698;SDS011;1865;50.918;7.092;2023-03-01T05:34:46;10.87;;;5.37;;
3698;SDS011;1865;50.918;7.092;2023-03-01T05:37:12;13.50;;;5.43;;
3698;SDS011;1865;50.918;7.092;2023-03-01T05:39:38;12.70;;;5.50;;
3698;SDS011;1865;50.918;7.092;2023-03-01T05:42:04;12.20;;;4.70;;
3698;SDS011;1865;50.918;7.092;2023-03-01T05:44:30;17.57;;;6.00;;
3698;SDS011;1865;50.918;7.092;2023-03-01T05:46:55;21.70;;;5.90;;
3698;SDS011;1865;50.918;7.092;2023-03-01T05:49:21;14.50;;;5.60;;
3698;SDS011;1865;50.918;7.092;2023-03-01T05:51:51;12.37;;;6.60;;
3698;SDS011;1865;50.918;7.092;2023-03-01T05:54:18;15.17;;;6.10;;
3698;SDS011;1865;50.918;7.092;2023-03-01T05:56:44;13.20;;;5.70;;
3698;SDS011;1865;50.918;7.092;2023-03-01T05:59:10;13.83;;;5.40;;
3698;SDS011;1865;50.918;7.092;2023-03-01T06:01:36;12.80;;;4.90;;
3698;SDS011;1865;50.918;7.092;2023-03-01T06:04:02;12.53;;;6.53;;
3698;SDS011;1865;50.918;7.092;2023-03-01T06:06:28;15.00;;;5.93;;
3698;SDS011;1865;50.918;7.092;2023-03-01T06:08:54;12.50;;;5.93;;
3698;SDS011;1865;50.918;7.092;2023-03-01T06:11:20;10.60;;;5.47;;
3698;SDS011;1865;50.918;7.092;2023-03-01T06:13:46;10.93;;;5.60;;
3698;SDS011;1865;50.918;7.092;2023-03-01T06:16:12;11.07;;;5.60;;
3698;SDS011;1865;50.918;7.092;2023-03-01T06:18:39;12.03;;;6.17;;
3698;SDS011;1865;50.918;7.092;2023-03-01T06:21:06;10.70;;;5.43;;
3698;SDS011;1865;50.918;7.092;2023-03-01T06:23:32;14.47;;;6.50;;
3698;SDS011;1865;50.918;7.092;2023-03-01T06:25:58;11.67;;;6.40;;
3698;SDS011;1865;50.918;7.092;2023-03-01T06:28:24;14.73;;;6.40;;
3698;SDS011;1865;50.918;7.092;2023-03-01T06:30:50;12.47;;;6.17;;
3698;SDS011;1865;50.918;7.092;2023-03-01T06:33:16;12.20;;;5.80;;
3698;SDS011;1865;50.918;7.092;2023-03-01T06:35:45;11.80;;;6.23;;
3698;SDS011;1865;50.918;7.092;2023-03-01T06:38:11;10.20;;;5.90;;
3698;SDS011;1865;50.918;7.092;2023-03-01T06:40:39;11.53;;;6.43;;
3698;SDS011;1865;50.918;7.092;2023-03-01T06:43:05;12.37;;;6.37;;
3698;SDS011;1865;50.918;7.092;2023-03-01T06:45:32;10.70;;;5.43;;
3698;SDS011;1865;50.918;7.092;2023-03-01T06:48:01;9.80;;;5.23;;
3698;SDS011;1865;50.918;7.092;2023-03-01T06:50:31;13.10;;;5.83;;
3698;SDS011;1865;50.918;7.092;2023-03-01T06:52:57;12.30;;;6.27;;
3698;SDS011;1865;50.918;7.092;2023-03-01T06:55:23;9.90;;;5.23;;
3698;SDS011;1865;50.918;7.092;2023-03-01T06:57:48;9.40;;;4.97;;
3698;SDS011;1865;50.918;7.092;2023-03-01T07:00:19;15.80;;;7.00;;
3698;SDS011;1865;50.918;7.092;2023-03-01T07:02:45;12.80;;;6.80;;
3698;SDS011;1865;50.918;7.092;2023-03-01T07:05:10;19.60;;;8.30;;
3698;SDS011;1865;50.918;7.092;2023-03-01T07:07:36;24.33;;;7.90;;
3698;SDS011;1865;50.918;7.092;2023-03-01T07:10:01;17.70;;;8.93;;
3698;SDS011;1865;50.918;7.092;2023-03-01T07:12:27;16.10;;;8.37;;
3698;SDS011;1865;50.918;7.092;2023-03-01T07:14:53;16.83;;;7.83;;
3698;SDS011;1865;50.918;7.092;2023-03-01T07:17:18;15.50;;;6.53;;
3698;SDS011;1865;50.918;7.092;2023-03-01T07:19:44;13.50;;;6.63;;
3698;SDS011;1865;50.918;7.092;2023-03-01T07:22:10;14.63;;;6.70;;
3698;SDS011;1865;50.918;7.092;2023-03-01T07:24:35;12.97;;;7.00;;
3698;SDS011;1865;50.918;7.092;2023-03-01T07:27:01;14.73;;;6.73;;
3698;SDS011;1865;50.918;7.092;2023-03-01T07:29:27;16.13;;;6.70;;
3698;SDS011;1865;50.918;7.092;2023-03-01T07:31:53;13.63;;;6.80;;
3698;SDS011;1865;50.918;7.092;2023-03-01T07:34:19;16.33;;;8.27;;
3698;SDS011;1865;50.918;7.092;2023-03-01T07:36:44;14.97;;;7.50;;
3698;SDS011;1865;50.918;7.092;2023-03-01T07:39:10;17.93;;;8.17;;
3698;SDS011;1865;50.918;7.092;2023-03-01T07:41:36;15.97;;;8.63;;
3698;SDS011;1865;50.918;7.092;2023-03-01T07:44:02;20.80;;;10.60;;
3698;SDS011;1865;50.918;7.092;2023-03-01T07:46:29;22.70;;;10.90;;
3698;SDS011;1865;50.918;7.092;2023-03-01T07:48:54;26.57;;;13.27;;
3698;SDS011;1865;50.918;7.092;2023-03-01T07:51:20;22.30;;;11.23;;
3698;SDS011;1865;50.918;7.092;2023-03-01T07:53:46;21.70;;;10.50;;
3698;SDS011;1865;50.918;7.092;2023-03-01T07:56:13;20.67;;;10.67;;
3698;SDS011;1865;50.918;7.092;2023-03-01T07:58:40;21.40;;;11.00;;
3698;SDS011;1865;50.918;7.092;2023-03-01T08:01:08;22.17;;;10.90;;
3698;SDS011;1865;50.918;7.092;2023-03-01T08:03:39;24.33;;;10.20;;
3698;SDS011;1865;50.918;7.092;2023-03-01T08:06:05;21.93;;;10.50;;
3698;SDS011;1865;50.918;7.092;2023-03-01T08:08:32;19.30;;;9.70;;
3698;SDS011;1865;50.918;7.092;2023-03-01T08:10:59;25.67;;;11.90;;
3698;SDS011;1865;50.918;7.092;2023-03-01T08:13:26;19.20;;;10.40;;
3698;SDS011;1865;50.918;7.092;2023-03-01T08:15:52;17.50;;;10.20;;
3698;SDS011;1865;50.918;7.092;2023-03-01T08:18:18;17.97;;;9.57;;
3698;SDS011;1865;50.918;7.092;2023-03-01T08:20:44;17.10;;;10.50;;
3698;SDS011;1865;50.918;7.092;2023-03-01T08:23:11;19.00;;;9.37;;
3698;SDS011;1865;50.918;7.092;2023-03-01T08:25:36;21.83;;;9.60;;
3698;SDS011;1865;50.918;7.092;2023-03-01T08:28:02;19.87;;;10.07;;
3698;SDS011;1865;50.918;7.092;2023-03-01T08:30:28;20.97;;;10.00;;
3698;SDS011;1865;50.918;7.092;2023-03-01T08:32:54;23.00;;;9.60;;
3698;SDS011;1865;50.918;7.092;2023-03-01T08:35:20;20.60;;;10.90;;
3698;SDS011;1865;50.918;7.092;2023-03-01T08:37:46;30.47;;;10.50;;
3698;SDS011;1865;50.918;7.092;2023-03-01T08:40:11;18.77;;;9.40;;
3698;SDS011;1865;50.918;7.092;2023-03-01T08:42:38;16.20;;;9.10;;
3698;SDS011;1865;50.918;7.092;2023-03-01T08:45:05;20.40;;;9.20;;
3698;SDS011;1865;50.918;7.092;2023-03-01T08:47:32;18.60;;;10.40;;
3698;SDS011;1865;50.918;7.092;2023-03-01T08:49:58;17.87;;;9.20;;
3698;SDS011;1865;50.918;7.092;2023-03-01T08:52:24;21.17;;;10.47;;
3698;SDS011;1865;50.918;7.092;2023-03-01T08:54:51;17.57;;;9.53;;
3698;SDS011;1865;50.918;7.092;2023-03-01T08:57:17;18.13;;;9.57;;
3698;SDS011;1865;50.918;7.092;2023-03-01T08:59:42;18.40;;;8.50;;
3698;SDS011;1865;50.918;7.092;2023-03-01T09:02:10;17.17;;;8.70;;
3698;SDS011;1865;50.918;7.092;2023-03-01T09:04:38;17.00;;;9.27;;
3698;SDS011;1865;50.918;7.092;2023-03-01T09:07:04;22.40;;;9.27;;
3698;SDS011;1865;50.918;7.092;2023-03-01T09:09:30;18.17;;;8.73;;
3698;SDS011;1865;50.918;7.092;2023-03-01T09:11:55;22.50;;;8.53;;
3698;SDS011;1865;50.918;7.092;2023-03-01T09:14:21;16.90;;;8.77;;
3698;SDS011;1865;50.918;7.092;2023-03-01T09:16:46;20.13;;;8.50;;
3698;SDS011;1865;50.918;7.092;2023-03-01T09:19:12;18.60;;;8.30;;
3698;SDS011;1865;50.918;7.092;2023-03-01T09:21:38;18.53;;;8.73;;
3698;SDS011;1865;50.918;7.092;2023-03-01T09:24:04;15.63;;;8.43;;
3698;SDS011;1865;50.918;7.092;2023-03-01T09:26:30;18.63;;;8.80;;
3698;SDS011;1865;50.918;7.092;2023-03-01T09:28:56;17.20;;;8.97;;
3698;SDS011;1865;50.918;7.092;2023-03-01T09:31:22;20.17;;;9.13;;
3698;SDS011;1865;50.918;7.092;2023-03-01T09:33:50;16.47;;;8.23;;
3698;SDS011;1865;50.918;7.092;2023-03-01T09:36:18;19.07;;;8.80;;
3698;SDS011;1865;50.918;7.092;2023-03-01T09:38:46;17.87;;;9.33;;
3698;SDS011;1865;50.918;7.092;2023-03-01T09:46:18;18.20;;;9.13;;
3698;SDS011;1865;50.918;7.092;2023-03-01T09:48:50;19.27;;;9.00;;
3698;SDS011;1865;50.918;7.092;2023-03-01T09:51:32;20.13;;;8.60;;
3698;SDS011;1865;50.918;7.092;2023-03-01T09:54:01;23.80;;;9.10;;
3698;SDS011;1865;50.918;7.092;2023-03-01T09:56:30;19.80;;;10.27;;
3698;SDS011;1865;50.918;7.092;2023-03-01T09:59:04;16.13;;;7.90;;
3698;SDS011;1865;50.918;7.092;2023-03-01T10:01:53;15.37;;;8.47;;
3698;SDS011;1865;50.918;7.092;2023-03-01T10:09:39;17.37;;;8.73;;
3698;SDS011;1865;50.918;7.092;2023-03-01T10:12:09;18.90;;;8.57;;
3698;SDS011;1865;50.918;7.092;2023-03-01T10:17:56;20.97;;;9.27;;
3698;SDS011;1865;50.918;7.092;2023-03-01T10:20:26;17.80;;;8.30;;
3698;SDS011;1865;50.918;7.092;2023-03-01T10:22:58;18.43;;;8.20;;
3698;SDS011;1865;50.918;7.092;2023-03-01T10:25:32;18.10;;;9.43;;
3698;SDS011;1865;50.918;7.092;2023-03-01T10:28:16;17.77;;;8.50;;
3698;SDS011;1865;50.918;7.092;2023-03-01T10:30:49;20.70;;;8.97;;
3698;SDS011;1865;50.918;7.092;2023-03-01T10:33:21;17.00;;;9.00;;
3698;SDS011;1865;50.918;7.092;2023-03-01T10:35:49;18.67;;;8.17;;
3698;SDS011;1865;50.918;7.092;2023-03-01T10:38:16;15.23;;;8.10;;
3698;SDS011;1865;50.918;7.092;2023-03-01T10:40:58;16.03;;;8.33;;
3698;SDS011;1865;50.918;7.092;2023-03-01T10:43:46;18.13;;;9.00;;
3698;SDS011;1865;50.918;7.092;2023-03-01T10:51:47;16.90;;;8.73;;
3698;SDS011;1865;50.918;7.092;2023-03-01T10:54:19;18.43;;;8.13;;
3698;SDS011;1865;50.918;7.092;2023-03-01T10:56:56;15.63;;;7.90;;
3698;SDS011;1865;50.918;7.092;2023-03-01T11:02:34;16.90;;;8.03;;
3698;SDS011;1865;50.918;7.092;2023-03-01T11:04:57;16.47;;;8.00;;
3698;SDS011;1865;50.918;7.092;2023-03-01T11:07:48;18.10;;;8.30;;
3698;SDS011;1865;50.918;7.092;2023-03-01T11:10:34;19.43;;;9.47;;
3698;SDS011;1865;50.918;7.092;2023-03-01T11:13:08;17.77;;;7.93;;
3698;SDS011;1865;50.918;7.092;2023-03-01T11:15:59;15.97;;;7.50;;
3698;SDS011;1865;50.918;7.092;2023-03-01T11:18:36;16.00;;;7.87;;
3698;SDS011;1865;50.918;7.092;2023-03-01T11:21:02;13.60;;;7.00;;
3698;SDS011;1865;50.918;7.092;2023-03-01T11:23:30;20.83;;;7.63;;
3698;SDS011;1865;50.918;7.092;2023-03-01T11:25:58;18.13;;;7.13;;
3698;SDS011;1865;50.918;7.092;2023-03-01T11:28:27;18.10;;;7.37;;
3698;SDS011;1865;50.918;7.092;2023-03-01T11:31:05;15.27;;;7.63;;
3698;SDS011;1865;50.918;7.092;2023-03-01T11:33:48;12.97;;;6.63;;
3698;SDS011;1865;50.918;7.092;2023-03-01T11:36:44;16.20;;;7.40;;
3698;SDS011;1865;50.918;7.092;2023-03-01T11:42:05;13.33;;;6.50;;
3698;SDS011;1865;50.918;7.092;2023-03-01T11:44:42;14.80;;;6.30;;
3698;SDS011;1865;50.918;7.092;2023-03-01T11:52:41;15.83;;;6.90;;
3698;SDS011;1865;50.918;7.092;2023-03-01T12:11:21;15.50;;;6.90;;
3698;SDS011;1865;50.918;7.092;2023-03-01T12:14:00;17.80;;;7.50;;
3698;SDS011;1865;50.918;7.092;2023-03-01T12:16:56;16.17;;;7.23;;
3698;SDS011;1865;50.918;7.092;2023-03-01T12:22:28;18.10;;;7.03;;
3698;SDS011;1865;50.918;7.092;2023-03-01T12:36:14;15.50;;;6.83;;
3698;SDS011;1865;50.918;7.092;2023-03-01T12:50:19;17.00;;;7.47;;
3698;SDS011;1865;50.918;7.092;2023-03-01T12:52:54;15.53;;;7.20;;
3698;SDS011;1865;50.918;7.092;2023-03-01T12:55:24;16.63;;;7.50;;
3698;SDS011;1865;50.918;7.092;2023-03-01T12:58:05;18.40;;;8.20;;
3698;SDS011;1865;50.918;7.092;2023-03-01T13:06:11;13.63;;;6.00;;
3698;SDS011;1865;50.918;7.092;2023-03-01T13:08:48;13.13;;;5.97;;
3698;SDS011;1865;50.918;7.092;2023-03-01T13:11:33;14.87;;;6.27;;
3698;SDS011;1865;50.918;7.092;2023-03-01T13:16:50;16.20;;;6.73;;
3698;SDS011;1865;50.918;7.092;2023-03-01T13:21:54;14.13;;;6.27;;
3698;SDS011;1865;50.918;7.092;2023-03-01T13:29:48;14.73;;;6.20;;
3698;SDS011;1865;50.918;7.092;2023-03-01T13:32:23;16.53;;;7.20;;
3698;SDS011;1865;50.918;7.092;2023-03-01T13:34:53;14.83;;;7.13;;
3698;SDS011;1865;50.918;7.092;2023-03-01T13:37:43;15.60;;;7.23;;
3698;SDS011;1865;50.918;7.092;2023-03-01T13:42:43;17.70;;;7.57;;
3698;SDS011;1865;50.918;7.092;2023-03-01T13:45:15;15.20;;;7.40;;
3698;SDS011;1865;50.918;7.092;2023-03-01T13:48:01;14.63;;;6.80;;
3698;SDS011;1865;50.918;7.092;2023-03-01T13:50:33;19.80;;;7.90;;
3698;SDS011;1865;50.918;7.092;2023-03-01T13:53:09;16.80;;;7.20;;
3698;SDS011;1865;50.918;7.092;2023-03-01T13:55:50;15.53;;;6.93;;
3698;SDS011;1865;50.918;7.092;2023-03-01T13:58:30;15.80;;;7.40;;
3698;SDS011;1865;50.918;7.092;2023-03-01T14:00:58;14.60;;;7.23;;
3698;SDS011;1865;50.918;7.092;2023-03-01T14:03:24;18.57;;;7.70;;
3698;SDS011;1865;50.918;7.092;2023-03-01T14:08:37;17.13;;;7.23;;
3698;SDS011;1865;50.918;7.092;2023-03-01T14:16:27;15.80;;;7.43;;
3698;SDS011;1865;50.918;7.092;2023-03-01T14:19:33;17.80;;;6.63;;
3698;SDS011;1865;50.918;7.092;2023-03-01T14:25:03;15.73;;;7.30;;
3698;SDS011;1865;50.918;7.092;2023-03-01T14:27:41;16.43;;;6.67;;
3698;SDS011;1865;50.918;7.092;2023-03-01T14:32:40;14.23;;;6.67;;
3698;SDS011;1865;50.918;7.092;2023-03-01T14:35:22;14.50;;;6.20;;
3698;SDS011;1865;50.918;7.092;2023-03-01T14:37:53;13.00;;;5.27;;
3698;SDS011;1865;50.918;7.092;2023-03-01T14:42:49;15.40;;;7.20;;
3698;SDS011;1865;50.918;7.092;2023-03-01T14:45:15;25.70;;;7.10;;
3698;SDS011;1865;50.918;7.092;2023-03-01T14:47:43;15.13;;;6.53;;
3698;SDS011;1865;50.918;7.092;2023-03-01T14:50:26;14.63;;;7.40;;
3698;SDS011;1865;50.918;7.092;2023-03-01T14:52:59;17.13;;;7.07;;
3698;SDS011;1865;50.918;7.092;2023-03-01T14:55:38;15.90;;;6.70;;
3698;SDS011;1865;50.918;7.092;2023-03-01T14:58:09;16.63;;;6.83;;
3698;SDS011;1865;50.918;7.092;2023-03-01T15:00:38;14.43;;;6.70;;
3698;SDS011;1865;50.918;7.092;2023-03-01T15:03:08;16.53;;;6.90;;
3698;SDS011;1865;50.918;7.092;2023-03-01T15:05:38;17.97;;;7.43;;
3698;SDS011;1865;50.918;7.092;2023-03-01T15:08:05;15.50;;;7.87;;
3698;SDS011;1865;50.918;7.092;2023-03-01T15:10:33;20.03;;;7.10;;
3698;SDS011;1865;50.918;7.092;2023-03-01T15:13:13;13.90;;;6.73;;
3698;SDS011;1865;50.918;7.092;2023-03-01T15:15:44;17.77;;;7.03;;
3698;SDS011;1865;50.918;7.092;2023-03-01T15:20:44;14.57;;;7.13;;
3698;SDS011;1865;50.918;7.092;2023-03-01T15:25:50;15.50;;;7.30;;
3698;SDS011;1865;50.918;7.092;2023-03-01T15:28:25;16.30;;;7.77;;
3698;SDS011;1865;50.918;7.092;2023-03-01T15:31:22;13.83;;;6.77;;
3698;SDS011;1865;50.918;7.092;2023-03-01T15:33:49;16.70;;;7.80;;
3698;SDS011;1865;50.918;7.092;2023-03-01T15:39:04;16.63;;;7.40;;
3698;SDS011;1865;50.918;7.092;2023-03-01T15:41:47;15.80;;;6.60;;
3698;SDS011;1865;50.918;7.092;2023-03-01T15:44:17;14.70;;;6.90;;
3698;SDS011;1865;50.918;7.092;2023-03-01T15:46:51;18.50;;;7.30;;
3698;SDS011;1865;50.918;7.092;2023-03-01T15:52:10;18.60;;;6.60;;
3698;SDS011;1865;50.918;7.092;2023-03-01T15:54:42;14.20;;;6.00;;
3698;SDS011;1865;50.918;7.092;2023-03-01T15:57:10;11.33;;;5.60;;
3698;SDS011;1865;50.918;7.092;2023-03-01T15:59:38;14.83;;;6.13;;
3698;SDS011;1865;50.918;7.092;2023-03-01T16:02:08;13.83;;;6.27;;
3698;SDS011;1865;50.918;7.092;2023-03-01T16:04:37;13.40;;;6.40;;
3698;SDS011;1865;50.918;7.092;2023-03-01T16:07:04;16.47;;;6.10;;
3698;SDS011;1865;50.918;7.092;2023-03-01T16:09:30;13.53;;;5.23;;
3698;SDS011;1865;50.918;7.092;2023-03-01T16:11:55;12.87;;;5.70;;
3698;SDS011;1865;50.918;7.092;2023-03-01T16:14:21;13.97;;;6.20;;
3698;SDS011;1865;50.918;7.092;2023-03-01T16:16:47;18.37;;;5.77;;
3698;SDS011;1865;50.918;7.092;2023-03-01T16:19:13;13.57;;;5.20;;
3698;SDS011;1865;50.918;7.092;2023-03-01T16:21:39;11.23;;;4.90;;
3698;SDS011;1865;50.918;7.092;2023-03-01T16:24:07;11.90;;;5.87;;
3698;SDS011;1865;50.918;7.092;2023-03-01T16:26:32;12.40;;;5.10;;
3698;SDS011;1865;50.918;7.092;2023-03-01T16:28:58;14.07;;;6.00;;
3698;SDS011;1865;50.918;7.092;2023-03-01T16:31:24;14.13;;;6.23;;
3698;SDS011;1865;50.918;7.092;2023-03-01T16:33:55;11.63;;;5.40;;
3698;SDS011;1865;50.918;7.092;2023-03-01T16:36:22;15.30;;;5.87;;
3698;SDS011;1865;50.918;7.092;2023-03-01T16:38:50;11.87;;;4.93;;
3698;SDS011;1865;50.918;7.092;2023-03-01T16:41:17;12.90;;;5.80;;
3698;SDS011;1865;50.918;7.092;2023-03-01T16:43:44;17.10;;;5.30;;
3698;SDS011;1865;50.918;7.092;2023-03-01T16:46:12;11.43;;;5.07;;
3698;SDS011;1865;50.918;7.092;2023-03-01T16:48:39;14.70;;;6.13;;
3698;SDS011;1865;50.918;7.092;2023-03-01T16:51:06;14.40;;;6.23;;
3698;SDS011;1865;50.918;7.092;2023-03-01T16:53:32;16.20;;;6.00;;
3698;SDS011;1865;50.918;7.092;2023-03-01T16:56:00;15.50;;;5.00;;
3698;SDS011;1865;50.918;7.092;2023-03-01T16:58:27;15.70;;;5.73;;
3698;SDS011;1865;50.918;7.092;2023-03-01T17:00:53;11.13;;;5.10;;
3698;SDS011;1865;50.918;7.092;2023-03-01T17:03:22;12.07;;;4.90;;
3698;SDS011;1865;50.918;7.092;2023-03-01T17:05:49;16.93;;;6.10;;
3698;SDS011;1865;50.918;7.092;2023-03-01T17:08:15;14.40;;;5.97;;
3698;SDS011;1865;50.918;7.092;2023-03-01T17:10:41;13.97;;;6.17;;
3698;SDS011;1865;50.918;7.092;2023-03-01T17:13:07;13.73;;;6.47;;
3698;SDS011;1865;50.918;7.092;2023-03-01T17:15:34;13.93;;;5.43;;
3698;SDS011;1865;50.918;7.092;2023-03-01T17:18:00;15.60;;;5.90;;
3698;SDS011;1865;50.918;7.092;2023-03-01T17:20:26;13.40;;;6.17;;
3698;SDS011;1865;50.918;7.092;2023-03-01T17:22:51;16.43;;;6.00;;
3698;SDS011;1865;50.918;7.092;2023-03-01T17:25:17;14.37;;;6.07;;
3698;SDS011;1865;50.918;7.092;2023-03-01T17:27:43;13.17;;;5.60;;